createdAt,value
2018-10-09T00:02:11.227Z,14.77
2018-10-09T00:04:41.018Z,14.20
2018-10-09T00:07:10.904Z,17.97
2018-10-09T00:09:40.894Z,16.50
2018-10-09T00:12:10.935Z,16.33
2018-10-09T00:14:41.486Z,16.90
2018-10-09T00:17:11.378Z,15.07
2018-10-09T00:19:41.274Z,17.70
2018-10-09T00:22:11.486Z,17.73
2018-10-09T00:24:42.475Z,18.40
2018-10-09T00:27:12.450Z,15.93
2018-10-09T00:29:42.645Z,17.43
2018-10-09T00:32:12.865Z,22.63
2018-10-09T00:34:42.781Z,18.63
2018-10-09T00:37:12.710Z,20.93
2018-10-09T00:39:42.497Z,18.80
2018-10-09T00:42:12.356Z,19.90
2018-10-09T00:44:42.654Z,17.53
2018-10-09T00:47:12.787Z,17.47
2018-10-09T00:49:42.570Z,18.83
2018-10-09T00:52:12.343Z,19.67
2018-10-09T00:54:42.147Z,22.73
2018-10-09T00:57:11.982Z,24.40
2018-10-09T00:59:42.299Z,18.40
2018-10-09T01:02:12.289Z,17.17
2018-10-09T01:04:42.097Z,25.57
2018-10-09T01:07:11.883Z,14.83
2018-10-09T01:09:41.638Z,16.87
2018-10-09T01:12:11.735Z,15.60
2018-10-09T01:14:41.610Z,16.57
2018-10-09T01:17:11.762Z,18.57
2018-10-09T01:19:42.582Z,19.17
2018-10-09T01:22:12.519Z,17.03
2018-10-09T01:24:42.518Z,17.50
2018-10-09T01:27:12.814Z,16.00
2018-10-09T01:29:42.626Z,19.03
2018-10-09T01:32:12.404Z,18.10
2018-10-09T01:34:42.281Z,18.63
2018-10-09T01:37:12.615Z,20.23
2018-10-09T01:39:43.128Z,19.83
2018-10-09T01:42:13.421Z,21.10
2018-10-09T01:44:43.358Z,19.07
2018-10-09T01:47:13.254Z,16.53
2018-10-09T01:50:13.440Z,20.33
2018-10-09T01:52:43.466Z,19.77
2018-10-09T01:55:13.436Z,19.60
2018-10-09T01:57:43.708Z,19.23
2018-10-09T02:00:13.697Z,22.33
2018-10-09T02:02:43.587Z,24.23
2018-10-09T02:05:13.521Z,21.23
2018-10-09T02:07:43.575Z,24.90
2018-10-09T02:10:13.578Z,24.53
2018-10-09T02:12:43.482Z,22.83
2018-10-09T02:15:13.990Z,24.13
2018-10-09T02:17:43.874Z,24.30
2018-10-09T02:20:13.830Z,22.70
2018-10-09T02:22:43.933Z,23.37
2018-10-09T02:25:14.027Z,22.93
2018-10-09T02:27:44.523Z,24.43
2018-10-09T02:30:14.878Z,22.27
2018-10-09T02:32:44.612Z,24.97
2018-10-09T02:35:14.433Z,20.87
2018-10-09T02:37:44.550Z,26.43
2018-10-09T02:40:14.601Z,21.30
2018-10-09T02:42:44.780Z,24.57
2018-10-09T02:45:15.190Z,23.83
2018-10-09T02:47:45.015Z,27.93
2018-10-09T02:50:15.140Z,25.87
2018-10-09T02:52:45.194Z,22.20
2018-10-09T02:55:15.194Z,25.53
2018-10-09T02:57:45.079Z,25.27
2018-10-09T03:00:15.523Z,22.40
2018-10-09T03:02:45.698Z,28.00
2018-10-09T03:05:16.055Z,28.47
2018-10-09T03:07:46.150Z,24.10
2018-10-09T03:10:16.308Z,25.77
2018-10-09T03:12:46.226Z,29.30
2018-10-09T03:15:16.718Z,26.10
2018-10-09T03:17:46.834Z,25.57
2018-10-09T03:20:17.243Z,30.00
2018-10-09T03:22:47.487Z,26.87
2018-10-09T03:25:17.591Z,28.60
2018-10-09T03:27:47.535Z,30.20
2018-10-09T03:30:17.683Z,34.37
2018-10-09T03:32:47.523Z,29.80
2018-10-09T03:35:17.902Z,28.97
2018-10-09T03:37:48.522Z,31.93
2018-10-09T03:40:18.290Z,33.03
2018-10-09T03:42:48.174Z,28.87
2018-10-09T03:45:18.465Z,30.27
2018-10-09T03:47:48.370Z,27.57
2018-10-09T03:50:18.826Z,30.07
2018-10-09T03:52:48.903Z,28.57
2018-10-09T03:55:18.935Z,27.47
2018-10-09T03:57:49.074Z,28.97
2018-10-09T04:00:19.333Z,25.20
2018-10-09T04:02:50.389Z,28.83
2018-10-09T04:05:20.531Z,25.23
2018-10-09T04:07:50.387Z,27.03
2018-10-09T04:10:20.188Z,32.30
2018-10-09T04:12:50.857Z,26.27
2018-10-09T04:15:20.755Z,27.97
2018-10-09T04:17:50.798Z,28.13
2018-10-09T04:20:20.706Z,25.77
2018-10-09T04:22:50.638Z,29.67
2018-10-09T04:25:20.427Z,35.53
2018-10-09T04:27:50.174Z,28.40
2018-10-09T04:30:20.676Z,34.90
2018-10-09T04:32:50.444Z,34.07
2018-10-09T04:35:20.302Z,33.73
2018-10-09T04:37:50.795Z,40.77
2018-10-09T04:40:20.598Z,35.40
2018-10-09T04:42:50.389Z,37.47
2018-10-09T04:45:20.647Z,31.87
2018-10-09T04:47:50.447Z,39.83
2018-10-09T04:50:20.941Z,33.70
2018-10-09T04:52:51.569Z,30.83
2018-10-09T04:55:21.854Z,32.87
2018-10-09T04:57:51.772Z,32.90
2018-10-09T05:00:21.702Z,32.70
2018-10-09T05:02:52.138Z,33.93
2018-10-09T05:05:23.026Z,34.97
2018-10-09T05:07:53.022Z,34.67
2018-10-09T05:10:22.805Z,41.07
2018-10-09T05:12:52.610Z,36.27
2018-10-09T05:15:22.622Z,30.60
2018-10-09T05:17:53.030Z,30.20
2018-10-09T05:20:23.083Z,42.70
2018-10-09T05:22:53.401Z,35.87
2018-10-09T05:25:23.946Z,30.30
2018-10-09T05:27:53.898Z,34.70
2018-10-09T05:30:23.687Z,36.17
2018-10-09T05:32:53.909Z,30.70
2018-10-09T05:35:23.761Z,34.43
2018-10-09T05:37:53.650Z,33.33
2018-10-09T05:40:23.812Z,30.57
2018-10-09T05:42:53.662Z,32.50
2018-10-09T05:45:23.714Z,35.33
2018-10-09T05:47:53.518Z,30.63
2018-10-09T05:50:23.825Z,32.97
2018-10-09T05:52:53.764Z,33.67
2018-10-09T05:55:23.577Z,39.53
2018-10-09T05:57:53.404Z,35.97
2018-10-09T06:00:23.247Z,33.60
2018-10-09T06:02:53.379Z,34.50
2018-10-09T06:05:23.201Z,34.10
2018-10-09T06:07:53.357Z,32.43
2018-10-09T06:10:23.150Z,36.20
2018-10-09T06:12:53.095Z,33.13
2018-10-09T06:15:22.909Z,37.77
2018-10-09T06:17:52.778Z,34.43
2018-10-09T06:20:22.590Z,34.57
2018-10-09T06:22:52.808Z,34.60
2018-10-09T06:25:22.746Z,35.17
2018-10-09T06:27:52.621Z,35.43
2018-10-09T06:30:23.034Z,33.00
2018-10-09T06:32:52.952Z,34.80
2018-10-09T06:35:23.026Z,33.00
2018-10-09T06:38:03.417Z,33.00
2018-10-09T06:40:34.725Z,32.23
2018-10-09T06:43:04.611Z,33.00
2018-10-09T06:45:34.916Z,34.87
2018-10-09T06:48:04.917Z,29.67
2018-10-09T06:50:34.775Z,33.30
2018-10-09T06:53:05.152Z,28.57
2018-10-09T06:55:35.191Z,30.87
2018-10-09T06:58:08.204Z,27.83
2018-10-09T07:00:40.048Z,25.17
2018-10-09T07:03:11.210Z,26.43
2018-10-09T07:05:42.826Z,32.30
2018-10-09T07:08:13.374Z,31.83
2018-10-09T07:10:43.654Z,33.00
2018-10-09T07:13:22.903Z,29.00
2018-10-09T07:15:53.473Z,29.73
2018-10-09T07:18:23.348Z,29.87
2018-10-09T07:20:53.544Z,31.00
2018-10-09T07:23:23.758Z,29.70
2018-10-09T07:25:57.003Z,28.33
2018-10-09T07:28:27.047Z,29.83
2018-10-09T07:30:57.184Z,31.13
2018-10-09T07:33:29.078Z,27.80
2018-10-09T07:35:59.048Z,30.40
2018-10-09T07:38:30.856Z,30.17
2018-10-09T07:41:01.860Z,31.20
2018-10-09T07:43:31.866Z,27.20
2018-10-09T07:46:03.440Z,25.43
2018-10-09T07:48:35.027Z,27.37
2018-10-09T07:51:05.456Z,23.00
2018-10-09T07:53:46.042Z,24.27
2018-10-09T07:56:16.646Z,25.83
2018-10-09T07:58:46.675Z,26.23
2018-10-09T08:01:16.632Z,23.30
2018-10-09T08:03:47.124Z,22.37
2018-10-09T08:06:17.358Z,23.10
2018-10-09T08:08:48.691Z,23.70
2018-10-09T08:11:19.377Z,24.57
2018-10-09T08:13:49.420Z,23.60
2018-10-09T08:16:19.347Z,22.60
2018-10-09T08:18:51.814Z,23.07
2018-10-09T08:21:22.866Z,23.47
2018-10-09T08:23:52.846Z,24.70
2018-10-09T08:26:23.165Z,23.33
2018-10-09T08:28:53.144Z,27.70
2018-10-09T08:31:22.988Z,24.27
2018-10-09T08:33:53.013Z,25.43
2018-10-09T08:36:23.370Z,24.83
2018-10-09T08:38:53.256Z,24.57
2018-10-09T08:41:23.591Z,23.27
2018-10-09T08:43:54.391Z,26.37
2018-10-09T08:46:24.300Z,22.23
2018-10-09T08:48:54.633Z,26.57
2018-10-09T08:51:29.236Z,22.30
2018-10-09T08:53:59.099Z,21.67
2018-10-09T08:56:28.964Z,21.23
2018-10-09T08:58:58.823Z,24.93
2018-10-09T09:01:28.806Z,19.90
2018-10-09T09:03:58.762Z,23.20
2018-10-09T09:06:29.737Z,20.80
2018-10-09T09:08:59.606Z,20.67
2018-10-09T09:11:29.513Z,21.00
2018-10-09T09:13:59.685Z,22.30
2018-10-09T09:16:29.617Z,22.93
2018-10-09T09:19:00.389Z,23.10
2018-10-09T09:21:31.137Z,20.83
2018-10-09T09:24:03.204Z,21.60
2018-10-09T09:26:33.772Z,23.87
2018-10-09T09:29:03.723Z,21.20
2018-10-09T09:31:35.637Z,20.33
2018-10-09T09:34:05.917Z,22.33
2018-10-09T09:36:36.155Z,23.57
2018-10-09T09:39:08.199Z,23.80
2018-10-09T09:41:38.163Z,21.97
2018-10-09T09:44:08.056Z,23.80
2018-10-09T09:46:37.881Z,24.13
2018-10-09T09:49:08.205Z,26.00
2018-10-09T09:52:40.699Z,32.27
2018-10-09T09:55:10.929Z,26.50
2018-10-09T09:57:40.879Z,27.67
2018-10-09T10:00:15.708Z,28.73
2018-10-09T10:02:46.085Z,30.70
2018-10-09T10:05:15.985Z,28.17
2018-10-09T10:07:45.890Z,27.67
2018-10-09T10:10:16.201Z,27.13
2018-10-09T10:12:46.056Z,30.20
2018-10-09T10:15:15.973Z,24.57
2018-10-09T10:17:45.858Z,28.00
2018-10-09T10:20:15.746Z,26.33
2018-10-09T10:22:45.597Z,30.57
2018-10-09T10:25:15.509Z,27.53
2018-10-09T10:27:45.966Z,30.07
2018-10-09T10:30:15.859Z,27.50
2018-10-09T10:32:45.778Z,27.63
2018-10-09T10:35:15.804Z,28.37
2018-10-09T10:37:45.630Z,27.47
2018-10-09T10:40:15.965Z,30.00
2018-10-09T10:42:45.886Z,26.90
2018-10-09T10:45:15.786Z,25.70
2018-10-09T10:47:45.757Z,25.70
2018-10-09T10:50:15.652Z,27.93
2018-10-09T10:52:45.669Z,26.77
2018-10-09T10:55:15.648Z,27.93
2018-10-09T10:57:45.551Z,27.37
2018-10-09T11:00:15.904Z,32.77
2018-10-09T11:02:45.823Z,28.57
2018-10-09T11:05:15.737Z,29.00
2018-10-09T11:07:45.648Z,26.47
2018-10-09T11:10:15.610Z,29.90
2018-10-09T11:12:45.448Z,26.83
2018-10-09T11:15:15.833Z,28.33
2018-10-09T11:17:45.769Z,30.50
2018-10-09T11:20:15.709Z,27.83
2018-10-09T11:22:46.011Z,29.67
2018-10-09T11:25:16.880Z,25.83
2018-10-09T11:27:46.927Z,26.83
2018-10-09T11:30:17.201Z,26.53
2018-10-09T11:32:47.101Z,27.53
2018-10-09T11:35:17.154Z,25.87
2018-10-09T11:37:48.203Z,26.47
2018-10-09T11:40:18.120Z,26.60
2018-10-09T11:42:48.229Z,25.63
2018-10-09T11:45:18.259Z,24.03
2018-10-09T11:47:48.253Z,27.00
2018-10-09T11:50:18.698Z,27.53
2018-10-09T11:52:48.653Z,25.70
2018-10-09T11:55:18.973Z,30.43
2018-10-09T11:57:48.940Z,22.00
2018-10-09T12:00:18.828Z,28.53
2018-10-09T12:02:50.529Z,24.57
2018-10-09T12:05:20.401Z,25.13
2018-10-09T12:07:50.481Z,21.83
2018-10-09T12:10:20.303Z,22.00
2018-10-09T12:12:50.209Z,24.63
2018-10-09T12:15:20.749Z,24.60
2018-10-09T12:17:51.004Z,23.07
2018-10-09T12:20:21.357Z,23.43
2018-10-09T12:22:52.150Z,26.53
2018-10-09T12:25:22.364Z,24.87
2018-10-09T12:27:52.265Z,21.90
2018-10-09T12:30:23.125Z,21.50
2018-10-09T12:32:53.541Z,21.63
2018-10-09T12:35:23.372Z,21.43
2018-10-09T12:37:53.234Z,21.27
2018-10-09T12:40:23.153Z,20.53
2018-10-09T12:42:53.033Z,20.80
2018-10-09T12:45:22.892Z,20.37
2018-10-09T12:47:52.833Z,16.97
2018-10-09T12:50:23.185Z,17.83
2018-10-09T12:52:53.850Z,17.97
2018-10-09T12:55:24.055Z,16.87
2018-10-09T12:57:54.152Z,21.33
2018-10-09T13:00:24.095Z,18.70
2018-10-09T13:03:00.038Z,18.47
2018-10-09T13:05:30.447Z,16.60
2018-10-09T13:08:00.461Z,17.93
2018-10-09T13:10:30.500Z,19.60
2018-10-09T13:13:00.372Z,14.73
2018-10-09T13:15:31.461Z,18.17
2018-10-09T13:18:01.432Z,18.90
2018-10-09T13:20:33.515Z,18.70
2018-10-09T13:23:03.620Z,17.50
2018-10-09T13:25:33.528Z,18.10
2018-10-09T13:28:04.344Z,19.13
2018-10-09T13:30:34.286Z,16.13
2018-10-09T13:33:04.582Z,19.10
2018-10-09T13:35:35.189Z,17.53
2018-10-09T13:38:05.169Z,18.77
2018-10-09T13:40:35.042Z,19.37
2018-10-09T13:43:04.874Z,17.93
2018-10-09T13:45:34.847Z,20.67
2018-10-09T13:48:04.835Z,15.40
2018-10-09T13:50:35.110Z,17.60
2018-10-09T13:53:05.344Z,17.00
2018-10-09T13:55:35.218Z,17.20
2018-10-09T13:58:05.637Z,19.40
2018-10-09T14:00:35.561Z,16.80
2018-10-09T14:03:05.990Z,13.87
2018-10-09T14:05:36.012Z,22.13
2018-10-09T14:08:05.972Z,15.03
2018-10-09T14:10:35.902Z,22.20
2018-10-09T14:13:05.908Z,18.80
2018-10-09T14:15:35.757Z,16.90
2018-10-09T14:18:05.766Z,16.47
2018-10-09T14:20:35.678Z,17.57
2018-10-09T14:23:06.050Z,14.33
2018-10-09T14:25:35.979Z,14.40
2018-10-09T14:28:05.913Z,15.07
2018-10-09T14:30:36.125Z,19.23
2018-10-09T14:33:07.242Z,16.93
2018-10-09T14:35:37.085Z,17.73
2018-10-09T14:38:07.609Z,17.40
2018-10-09T14:40:37.488Z,16.00
2018-10-09T14:43:07.708Z,15.17
2018-10-09T14:45:38.711Z,17.17
2018-10-09T14:48:09.067Z,14.37
2018-10-09T14:50:38.945Z,12.50
2018-10-09T14:53:09.130Z,16.20
2018-10-09T14:55:38.891Z,18.30
2018-10-09T14:58:08.734Z,16.47
2018-10-09T15:00:39.278Z,14.83
2018-10-09T15:03:09.083Z,13.77
2018-10-09T15:05:38.887Z,15.50
2018-10-09T15:08:09.193Z,12.77
2018-10-09T15:10:39.099Z,13.67
2018-10-09T15:13:08.920Z,16.17
2018-10-09T15:15:41.181Z,13.30
2018-10-09T15:18:11.119Z,11.50
2018-10-09T15:20:40.903Z,14.40
2018-10-09T15:23:10.686Z,12.13
2018-10-09T15:25:40.493Z,12.03
2018-10-09T15:28:10.295Z,12.10
2018-10-09T15:30:40.099Z,13.83
2018-10-09T15:33:10.161Z,14.37
2018-10-09T15:35:39.948Z,17.00
2018-10-09T15:38:09.722Z,15.17
2018-10-09T15:40:39.493Z,13.83
2018-10-09T15:43:09.307Z,14.50
2018-10-09T15:45:39.484Z,11.97
2018-10-09T15:48:09.299Z,13.50
2018-10-09T15:50:39.082Z,14.07
2018-10-09T15:53:08.899Z,12.77
2018-10-09T15:55:38.950Z,11.97
2018-10-09T15:58:08.906Z,13.90
2018-10-09T16:00:39.447Z,14.17
2018-10-09T16:03:09.748Z,17.73
2018-10-09T16:05:39.522Z,14.10
2018-10-09T16:08:09.312Z,11.43
2018-10-09T16:10:39.086Z,14.37
2018-10-09T16:13:08.911Z,13.97
2018-10-09T16:15:39.305Z,18.23
2018-10-09T16:18:09.094Z,14.90
2018-10-09T16:20:38.943Z,14.10
2018-10-09T16:23:09.434Z,19.97
2018-10-09T16:25:39.266Z,14.80
2018-10-09T16:28:09.332Z,12.23
2018-10-09T16:30:39.581Z,12.93
2018-10-09T16:33:09.639Z,12.07
2018-10-09T16:35:39.464Z,10.07
2018-10-09T16:38:09.260Z,11.43
2018-10-09T16:40:39.168Z,9.97
2018-10-09T16:43:09.346Z,14.67
2018-10-09T16:45:39.139Z,10.13
2018-10-09T16:48:09.008Z,12.63
2018-10-09T16:50:39.343Z,16.00
2018-10-09T16:53:09.165Z,12.57
2018-10-09T16:55:38.996Z,12.63
2018-10-09T16:58:09.471Z,12.73
2018-10-09T17:00:39.324Z,18.70
2018-10-09T17:03:09.147Z,14.10
2018-10-09T17:05:38.955Z,11.37
2018-10-09T17:08:08.775Z,10.77
2018-10-09T17:10:38.646Z,14.77
2018-10-09T17:13:08.595Z,12.67
2018-10-09T17:15:38.861Z,10.00
2018-10-09T17:18:08.727Z,23.30
2018-10-09T17:20:38.550Z,18.20
2018-10-09T17:23:08.616Z,16.47
2018-10-09T17:25:38.452Z,12.63
2018-10-09T17:28:09.165Z,11.10
2018-10-09T17:30:39.621Z,12.73
2018-10-09T17:33:11.635Z,11.70
2018-10-09T17:35:43.347Z,12.10
2018-10-09T17:38:14.088Z,9.90
2018-10-09T17:40:44.108Z,12.80
2018-10-09T17:43:13.942Z,8.60
2018-10-09T17:45:45.297Z,10.77
2018-10-09T17:48:15.934Z,8.93
2018-10-09T17:50:46.518Z,9.57
2018-10-09T17:53:19.896Z,12.80
2018-10-09T17:55:50.219Z,12.87
2018-10-09T17:58:20.576Z,12.80
2018-10-09T18:00:52.365Z,11.60
2018-10-09T18:03:23.388Z,13.47
2018-10-09T18:05:57.043Z,10.80
2018-10-09T18:08:27.357Z,11.67
2018-10-09T18:10:57.418Z,11.60
2018-10-09T18:13:28.267Z,15.47
2018-10-09T18:15:58.718Z,12.30
2018-10-09T18:18:28.555Z,16.07
2018-10-09T18:20:58.331Z,13.97
2018-10-09T18:23:28.111Z,12.83
2018-10-09T18:25:57.877Z,11.23
2018-10-09T18:28:27.659Z,11.10
2018-10-09T18:30:57.936Z,12.93
2018-10-09T18:33:27.699Z,17.53
2018-10-09T18:36:07.150Z,14.90
2018-10-09T18:38:37.700Z,19.10
2018-10-09T18:41:07.639Z,21.47
2018-10-09T18:43:38.277Z,19.03
2018-10-09T18:46:08.142Z,17.40
2018-10-09T18:48:38.219Z,19.23
2018-10-09T18:51:08.114Z,19.53
2018-10-09T18:53:38.230Z,20.57
2018-10-09T18:56:08.156Z,16.33
2018-10-09T18:58:39.593Z,17.00
2018-10-09T19:01:10.184Z,15.17
2018-10-09T19:03:41.463Z,12.77
2018-10-09T19:06:14.738Z,13.80
2018-10-09T19:08:45.007Z,14.70
2018-10-09T19:11:14.880Z,19.43
2018-10-09T19:13:45.175Z,14.70
2018-10-09T19:16:15.606Z,25.30
2018-10-09T19:18:45.391Z,19.70
2018-10-09T19:21:15.536Z,20.87
2018-10-09T19:23:45.534Z,21.43
2018-10-09T19:26:15.882Z,21.43
2018-10-09T19:28:46.580Z,20.47
2018-10-09T19:31:16.366Z,19.80
2018-10-09T19:33:46.359Z,18.60
2018-10-09T19:36:17.310Z,25.30
2018-10-09T19:38:47.858Z,22.47
2018-10-09T19:41:18.026Z,21.77
2018-10-09T19:43:48.588Z,31.33
2018-10-09T19:46:18.424Z,35.73
2018-10-09T19:48:48.267Z,47.47
2018-10-09T19:51:18.501Z,42.27
2018-10-09T19:53:48.374Z,28.23
2018-10-09T19:56:18.422Z,25.77
2018-10-09T19:58:48.220Z,26.57
2018-10-09T20:01:18.550Z,24.47
2018-10-09T20:03:48.861Z,23.03
2018-10-09T20:06:18.737Z,25.37
2018-10-09T20:08:48.538Z,24.90
2018-10-09T20:11:18.447Z,21.77
2018-10-09T20:13:48.586Z,23.03
2018-10-09T20:16:18.927Z,23.47
2018-10-09T20:18:48.973Z,21.30
2018-10-09T20:21:18.766Z,19.43
2018-10-09T20:23:49.346Z,18.87
2018-10-09T20:26:19.147Z,20.53
2018-10-09T20:28:49.001Z,22.30
2018-10-09T20:31:19.527Z,22.00
2018-10-09T20:33:49.835Z,26.30
2018-10-09T20:36:19.846Z,24.10
2018-10-09T20:38:50.042Z,20.03
2018-10-09T20:41:20.428Z,19.30
2018-10-09T20:43:51.086Z,21.90
2018-10-09T20:46:23.918Z,17.87
2018-10-09T20:48:54.889Z,23.13
2018-10-09T20:51:25.143Z,22.03
2018-10-09T20:53:54.969Z,28.97
2018-10-09T20:56:25.006Z,23.37
2018-10-09T20:58:55.042Z,26.33
2018-10-09T21:01:25.173Z,24.80
2018-10-09T21:03:55.707Z,26.63
2018-10-09T21:06:26.852Z,29.00
2018-10-09T21:15:39.142Z,28.77
2018-10-09T21:18:08.946Z,25.97
2018-10-09T21:20:38.773Z,25.47
2018-10-09T21:23:08.907Z,26.33
2018-10-09T21:25:38.950Z,28.37
2018-10-09T21:28:08.939Z,28.43
2018-10-09T21:30:39.059Z,26.23
2018-10-09T21:33:08.836Z,28.50
2018-10-09T21:35:38.580Z,26.03
2018-10-09T21:38:08.574Z,28.13
2018-10-09T21:40:38.606Z,33.07
2018-10-09T21:43:08.394Z,26.97
2018-10-09T21:45:38.171Z,28.40
2018-10-09T21:48:08.425Z,33.98
2018-10-09T21:50:38.202Z,29.57
2018-10-09T21:53:08.058Z,33.10
2018-10-09T21:55:38.371Z,37.80
2018-10-09T21:58:08.205Z,28.13
2018-10-09T22:00:43.282Z,29.57
2018-10-09T22:03:13.331Z,33.80
2018-10-09T22:05:43.331Z,33.87
2018-10-09T22:08:19.259Z,34.43
2018-10-09T22:10:49.518Z,32.77
2018-10-09T22:13:19.313Z,31.60
2018-10-09T22:15:49.374Z,31.97
2018-10-09T22:18:19.138Z,33.43
2018-10-09T22:20:48.882Z,31.67
2018-10-09T22:23:18.933Z,35.17
2018-10-09T22:25:48.715Z,35.63
2018-10-09T22:28:18.470Z,35.93
2018-10-09T22:30:48.286Z,37.00
2018-10-09T22:33:18.112Z,32.37
2018-10-09T22:35:47.855Z,32.73
2018-10-09T22:38:17.904Z,35.63
2018-10-09T22:40:47.711Z,34.60
2018-10-09T22:43:17.543Z,36.23
2018-10-09T22:45:47.565Z,43.57
2018-10-09T22:48:17.358Z,45.50
2018-10-09T22:50:47.181Z,42.93
2018-10-09T22:53:17.221Z,43.20
2018-10-09T22:55:46.945Z,43.33
2018-10-09T22:58:16.721Z,44.37
2018-10-09T23:00:46.829Z,39.63
2018-10-09T23:03:16.598Z,49.77
2018-10-09T23:05:46.355Z,46.90
2018-10-09T23:08:16.093Z,43.87
2018-10-09T23:10:45.875Z,41.27
2018-10-09T23:13:15.641Z,44.13
2018-10-09T23:15:45.711Z,40.07
2018-10-09T23:18:15.563Z,51.17
2018-10-09T23:20:45.366Z,47.37
2018-10-09T23:23:15.138Z,44.30
2018-10-09T23:25:45.010Z,46.47
2018-10-09T23:28:14.786Z,41.57
2018-10-09T23:30:44.908Z,42.60
2018-10-09T23:33:14.676Z,38.47
2018-10-09T23:35:44.444Z,42.17
2018-10-09T23:38:14.683Z,48.67
2018-10-09T23:40:44.458Z,45.60
2018-10-09T23:43:14.294Z,49.50
2018-10-09T23:45:44.033Z,45.40
2018-10-09T23:48:13.757Z,46.87
2018-10-09T23:50:43.598Z,45.20
2018-10-09T23:53:13.346Z,43.73
2018-10-09T23:55:43.130Z,42.87
2018-10-09T23:58:12.934Z,39.57
